sensor_id;sensor_type;location;lat;lon;timestamp;temperature;humidity
431;DHT22;202;48.764;9.172;2023-07-28T06:32:01;19.70;93.30
431;DHT22;202;48.764;9.172;2023-07-28T06:34:42;19.30;93.60
431;DHT22;202;48.764;9.172;2023-07-28T06:37:09;19.60;93.80
431;DHT22;202;48.764;9.172;2023-07-28T06:39:35;19.70;92.30
431;DHT22;202;48.764;9.172;2023-07-28T06:42:04;19.70;88.10
431;DHT22;202;48.764;9.172;2023-07-28T06:44:32;19.80;83.20
431;DHT22;202;48.764;9.172;2023-07-28T06:47:00;19.70;77.00
431;DHT22;202;48.764;9.172;2023-07-28T06:49:27;19.70;76.30
431;DHT22;202;48.764;9.172;2023-07-28T06:51:54;19.70;76.40
431;DHT22;202;48.764;9.172;2023-07-28T06:54:21;19.70;76.40
431;DHT22;202;48.764;9.172;2023-07-28T06:56:48;19.70;76.10
431;DHT22;202;48.764;9.172;2023-07-28T06:59:17;19.60;75.40
431;DHT22;202;48.764;9.172;2023-07-28T07:01:44;19.70;75.70
431;DHT22;202;48.764;9.172;2023-07-28T07:04:11;19.80;75.70
431;DHT22;202;48.764;9.172;2023-07-28T07:06:39;19.80;75.90
431;DHT22;202;48.764;9.172;2023-07-28T07:09:07;19.90;75.40
431;DHT22;202;48.764;9.172;2023-07-28T07:11:37;19.90;75.00
431;DHT22;202;48.764;9.172;2023-07-28T07:17:38;20.10;75.90
431;DHT22;202;48.764;9.172;2023-07-28T07:20:07;20.10;73.60
431;DHT22;202;48.764;9.172;2023-07-28T07:22:36;20.20;74.10
431;DHT22;202;48.764;9.172;2023-07-28T07:25:17;20.30;74.00
431;DHT22;202;48.764;9.172;2023-07-28T07:27:46;20.40;73.30
431;DHT22;202;48.764;9.172;2023-07-28T07:30:32;20.50;71.50
431;DHT22;202;48.764;9.172;2023-07-28T07:33:01;20.60;71.50
431;DHT22;202;48.764;9.172;2023-07-28T07:35:28;20.60;71.90
431;DHT22;202;48.764;9.172;2023-07-28T07:37:55;20.70;71.80
431;DHT22;202;48.764;9.172;2023-07-28T07:40:22;20.80;71.00
431;DHT22;202;48.764;9.172;2023-07-28T07:42:50;20.90;71.20
431;DHT22;202;48.764;9.172;2023-07-28T07:45:18;21.10;70.00
431;DHT22;202;48.764;9.172;2023-07-28T07:47:45;21.20;68.20
431;DHT22;202;48.764;9.172;2023-07-28T07:50:14;21.40;66.40
431;DHT22;202;48.764;9.172;2023-07-28T07:52:40;21.20;64.00
431;DHT22;202;48.764;9.172;2023-07-28T07:55:09;21.10;62.80
431;DHT22;202;48.764;9.172;2023-07-28T07:57:37;21.10;63.40
431;DHT22;202;48.764;9.172;2023-07-28T08:00:05;21.10;63.60
431;DHT22;202;48.764;9.172;2023-07-28T08:02:32;21.20;64.20
431;DHT22;202;48.764;9.172;2023-07-28T08:04:59;21.30;64.60
431;DHT22;202;48.764;9.172;2023-07-28T08:07:28;21.30;64.10
431;DHT22;202;48.764;9.172;2023-07-28T08:09:55;21.40;65.20
431;DHT22;202;48.764;9.172;2023-07-28T08:12:22;21.40;65.20
431;DHT22;202;48.764;9.172;2023-07-28T08:14:56;21.50;64.20
431;DHT22;202;48.764;9.172;2023-07-28T08:17:38;21.50;61.50
431;DHT22;202;48.764;9.172;2023-07-28T08:20:06;21.50;61.90
431;DHT22;202;48.764;9.172;2023-07-28T08:22:37;21.50;62.80
431;DHT22;202;48.764;9.172;2023-07-28T08:25:05;21.50;62.50
431;DHT22;202;48.764;9.172;2023-07-28T08:27:53;21.50;63.20
431;DHT22;202;48.764;9.172;2023-07-28T08:30:20;21.60;63.20
431;DHT22;202;48.764;9.172;2023-07-28T08:32:47;21.60;63.00
431;DHT22;202;48.764;9.172;2023-07-28T08:35:15;21.60;64.70
431;DHT22;202;48.764;9.172;2023-07-28T08:37:44;21.70;65.00
431;DHT22;202;48.764;9.172;2023-07-28T08:40:12;21.70;65.00
431;DHT22;202;48.764;9.172;2023-07-28T08:42:47;21.80;64.90
431;DHT22;202;48.764;9.172;2023-07-28T08:45:15;21.80;60.50
431;DHT22;202;48.764;9.172;2023-07-28T08:47:46;21.90;62.50
431;DHT22;202;48.764;9.172;2023-07-28T08:59:41;21.90;60.30
431;DHT22;202;48.764;9.172;2023-07-28T09:02:22;21.90;59.50
431;DHT22;202;48.764;9.172;2023-07-28T09:04:51;22.00;61.40
431;DHT22;202;48.764;9.172;2023-07-28T09:07:18;22.00;59.80
431;DHT22;202;48.764;9.172;2023-07-28T09:09:47;22.10;62.10
431;DHT22;202;48.764;9.172;2023-07-28T10:23:44;22.50;55.80
431;DHT22;202;48.764;9.172;2023-07-28T10:26:39;22.50;56.50
431;DHT22;202;48.764;9.172;2023-07-28T10:29:58;22.60;56.80
431;DHT22;202;48.764;9.172;2023-07-28T10:33:28;22.70;57.20
431;DHT22;202;48.764;9.172;2023-07-28T11:09:35;23.50;45.80
431;DHT22;202;48.764;9.172;2023-07-28T11:12:02;23.80;43.20
431;DHT22;202;48.764;9.172;2023-07-28T11:14:30;24.00;43.80
431;DHT22;202;48.764;9.172;2023-07-28T11:16:57;24.20;43.30
431;DHT22;202;48.764;9.172;2023-07-28T11:22:40;24.50;41.20
431;DHT22;202;48.764;9.172;2023-07-28T12:48:42;24.00;47.00
431;DHT22;202;48.764;9.172;2023-07-28T12:51:10;24.10;47.10
431;DHT22;202;48.764;9.172;2023-07-28T12:53:43;24.30;47.10
431;DHT22;202;48.764;9.172;2023-07-28T12:56:15;24.40;45.40
431;DHT22;202;48.764;9.172;2023-07-28T12:58:43;24.50;46.70
431;DHT22;202;48.764;9.172;2023-07-28T13:50:17;23.20;55.50
431;DHT22;202;48.764;9.172;2023-07-28T13:52:44;22.80;61.20
431;DHT22;202;48.764;9.172;2023-07-28T13:55:11;22.60;65.80
431;DHT22;202;48.764;9.172;2023-07-28T13:57:38;22.50;67.10
431;DHT22;202;48.764;9.172;2023-07-28T14:00:06;22.60;65.30
431;DHT22;202;48.764;9.172;2023-07-28T14:02:34;22.50;65.70
431;DHT22;202;48.764;9.172;2023-07-28T14:05:02;22.40;67.60
431;DHT22;202;48.764;9.172;2023-07-28T14:07:35;22.30;69.60
431;DHT22;202;48.764;9.172;2023-07-28T14:29:49;21.30;82.30
431;DHT22;202;48.764;9.172;2023-07-28T14:35:28;21.50;81.80
431;DHT22;202;48.764;9.172;2023-07-28T14:38:12;21.50;81.90
431;DHT22;202;48.764;9.172;2023-07-28T14:40:39;21.60;81.30
431;DHT22;202;48.764;9.172;2023-07-28T14:43:06;21.70;81.60
431;DHT22;202;48.764;9.172;2023-07-28T14:45:34;21.70;81.50
431;DHT22;202;48.764;9.172;2023-07-28T14:48:02;21.70;81.90
431;DHT22;202;48.764;9.172;2023-07-28T14:50:29;21.60;81.00
431;DHT22;202;48.764;9.172;2023-07-28T14:52:58;21.50;80.20
431;DHT22;202;48.764;9.172;2023-07-28T14:55:25;21.50;81.20
431;DHT22;202;48.764;9.172;2023-07-28T14:57:52;21.50;82.50
431;DHT22;202;48.764;9.172;2023-07-28T15:00:19;21.50;82.30
431;DHT22;202;48.764;9.172;2023-07-28T15:02:47;21.60;81.60
431;DHT22;202;48.764;9.172;2023-07-28T15:05:14;21.70;81.10
431;DHT22;202;48.764;9.172;2023-07-28T15:07:41;21.60;78.90
431;DHT22;202;48.764;9.172;2023-07-28T15:10:08;21.60;79.70
431;DHT22;202;48.764;9.172;2023-07-28T15:12:44;21.50;80.80
431;DHT22;202;48.764;9.172;2023-07-28T15:15:13;21.50;83.00
431;DHT22;202;48.764;9.172;2023-07-28T15:17:43;21.60;81.80
431;DHT22;202;48.764;9.172;2023-07-28T15:20:26;21.70;81.60
431;DHT22;202;48.764;9.172;2023-07-28T15:22:53;21.80;82.20
431;DHT22;202;48.764;9.172;2023-07-28T15:25:20;21.90;80.40
431;DHT22;202;48.764;9.172;2023-07-28T15:27:51;22.00;79.40
431;DHT22;202;48.764;9.172;2023-07-28T15:30:20;22.20;78.00
431;DHT22;202;48.764;9.172;2023-07-28T15:32:53;22.10;78.90
431;DHT22;202;48.764;9.172;2023-07-28T15:35:25;22.10;79.20
431;DHT22;202;48.764;9.172;2023-07-28T15:37:53;22.20;79.30
431;DHT22;202;48.764;9.172;2023-07-28T15:40:20;22.20;79.30
431;DHT22;202;48.764;9.172;2023-07-28T15:42:47;22.20;79.20
431;DHT22;202;48.764;9.172;2023-07-28T15:45:14;22.20;79.30
431;DHT22;202;48.764;9.172;2023-07-28T15:47:41;22.20;79.30
431;DHT22;202;48.764;9.172;2023-07-28T15:50:09;22.20;79.10
431;DHT22;202;48.764;9.172;2023-07-28T15:52:37;22.10;78.30
431;DHT22;202;48.764;9.172;2023-07-28T15:55:05;22.00;78.80
431;DHT22;202;48.764;9.172;2023-07-28T15:57:32;22.00;81.00
431;DHT22;202;48.764;9.172;2023-07-28T15:59:59;22.00;81.00
431;DHT22;202;48.764;9.172;2023-07-28T16:02:26;22.00;80.00
431;DHT22;202;48.764;9.172;2023-07-28T16:04:53;21.90;80.30
431;DHT22;202;48.764;9.172;2023-07-28T16:07:20;21.90;81.80
431;DHT22;202;48.764;9.172;2023-07-28T16:09:49;21.90;80.60
431;DHT22;202;48.764;9.172;2023-07-28T16:12:17;21.80;82.10
431;DHT22;202;48.764;9.172;2023-07-28T16:14:44;21.80;83.70
431;DHT22;202;48.764;9.172;2023-07-28T16:17:12;21.90;83.00
431;DHT22;202;48.764;9.172;2023-07-28T16:19:39;21.80;82.30
431;DHT22;202;48.764;9.172;2023-07-28T16:22:06;21.90;83.10
431;DHT22;202;48.764;9.172;2023-07-28T16:24:33;22.00;83.90
431;DHT22;202;48.764;9.172;2023-07-28T16:27:09;22.00;83.90
431;DHT22;202;48.764;9.172;2023-07-28T16:29:36;21.90;83.30
431;DHT22;202;48.764;9.172;2023-07-28T16:32:04;21.90;82.10
431;DHT22;202;48.764;9.172;2023-07-28T16:34:37;21.90;83.90
431;DHT22;202;48.764;9.172;2023-07-28T16:37:04;21.90;84.10
431;DHT22;202;48.764;9.172;2023-07-28T16:39:32;21.80;83.80
431;DHT22;202;48.764;9.172;2023-07-28T16:41:59;21.80;84.90
431;DHT22;202;48.764;9.172;2023-07-28T16:44:39;21.80;86.40
431;DHT22;202;48.764;9.172;2023-07-28T16:47:06;21.80;87.80
431;DHT22;202;48.764;9.172;2023-07-28T16:49:33;21.70;86.40
431;DHT22;202;48.764;9.172;2023-07-28T16:52:03;21.80;86.70
431;DHT22;202;48.764;9.172;2023-07-28T16:54:39;21.70;86.10
431;DHT22;202;48.764;9.172;2023-07-28T16:57:07;21.80;88.10
431;DHT22;202;48.764;9.172;2023-07-28T16:59:35;21.80;87.50
431;DHT22;202;48.764;9.172;2023-07-28T17:02:05;21.90;87.60
431;DHT22;202;48.764;9.172;2023-07-28T17:04:32;21.90;87.80
431;DHT22;202;48.764;9.172;2023-07-28T17:06:59;21.80;87.00
431;DHT22;202;48.764;9.172;2023-07-28T17:09:26;21.90;87.60
431;DHT22;202;48.764;9.172;2023-07-28T17:12:03;21.90;87.10
431;DHT22;202;48.764;9.172;2023-07-28T17:14:44;21.90;87.90
431;DHT22;202;48.764;9.172;2023-07-28T17:17:13;22.00;88.50
431;DHT22;202;48.764;9.172;2023-07-28T17:19:41;22.00;88.30
431;DHT22;202;48.764;9.172;2023-07-28T17:22:09;22.00;88.00
431;DHT22;202;48.764;9.172;2023-07-28T17:24:36;22.00;86.40
431;DHT22;202;48.764;9.172;2023-07-28T17:27:03;22.00;83.90
431;DHT22;202;48.764;9.172;2023-07-28T17:29:31;22.00;83.90
431;DHT22;202;48.764;9.172;2023-07-28T17:31:59;22.00;83.90
431;DHT22;202;48.764;9.172;2023-07-28T17:34:27;22.00;85.20
431;DHT22;202;48.764;9.172;2023-07-28T17:36:54;22.00;85.40
431;DHT22;202;48.764;9.172;2023-07-28T17:39:22;22.00;85.70
431;DHT22;202;48.764;9.172;2023-07-28T17:42:05;22.00;86.10
431;DHT22;202;48.764;9.172;2023-07-28T17:44:32;21.90;87.10
431;DHT22;202;48.764;9.172;2023-07-28T17:46:59;22.00;87.10
431;DHT22;202;48.764;9.172;2023-07-28T17:49:28;22.00;86.90
431;DHT22;202;48.764;9.172;2023-07-28T17:52:01;22.00;87.30
431;DHT22;202;48.764;9.172;2023-07-28T17:54:32;22.00;87.10
431;DHT22;202;48.764;9.172;2023-07-28T18:00:19;22.00;85.10
431;DHT22;202;48.764;9.172;2023-07-28T18:02:47;22.00;84.70
431;DHT22;202;48.764;9.172;2023-07-28T18:05:45;21.80;85.20
431;DHT22;202;48.764;9.172;2023-07-28T18:08:15;21.90;86.70
431;DHT22;202;48.764;9.172;2023-07-28T18:10:46;21.90;86.80
431;DHT22;202;48.764;9.172;2023-07-28T18:13:32;21.90;86.10
431;DHT22;202;48.764;9.172;2023-07-28T18:16:13;21.80;85.90
431;DHT22;202;48.764;9.172;2023-07-28T18:18:42;21.80;86.90
431;DHT22;202;48.764;9.172;2023-07-28T18:21:40;21.80;86.40
431;DHT22;202;48.764;9.172;2023-07-28T18:24:10;21.90;86.90
431;DHT22;202;48.764;9.172;2023-07-28T18:26:42;21.80;88.20
431;DHT22;202;48.764;9.172;2023-07-28T18:29:12;21.80;88.10
431;DHT22;202;48.764;9.172;2023-07-28T18:31:39;21.70;88.40
431;DHT22;202;48.764;9.172;2023-07-28T18:34:07;21.80;89.10
431;DHT22;202;48.764;9.172;2023-07-28T18:36:35;21.80;89.30
431;DHT22;202;48.764;9.172;2023-07-28T18:39:04;21.80;89.80
431;DHT22;202;48.764;9.172;2023-07-28T18:41:32;21.80;89.80
431;DHT22;202;48.764;9.172;2023-07-28T18:44:00;21.70;90.00
431;DHT22;202;48.764;9.172;2023-07-28T18:46:44;21.80;89.90
431;DHT22;202;48.764;9.172;2023-07-28T18:49:25;21.70;90.30
431;DHT22;202;48.764;9.172;2023-07-28T18:51:58;21.70;90.60
431;DHT22;202;48.764;9.172;2023-07-28T18:54:29;21.50;90.70
431;DHT22;202;48.764;9.172;2023-07-28T18:56:56;21.50;90.70
431;DHT22;202;48.764;9.172;2023-07-28T18:59:24;21.50;90.40
431;DHT22;202;48.764;9.172;2023-07-28T19:01:52;21.50;90.30
431;DHT22;202;48.764;9.172;2023-07-28T19:04:33;21.40;90.20
431;DHT22;202;48.764;9.172;2023-07-28T19:07:38;21.40;89.80
431;DHT22;202;48.764;9.172;2023-07-28T19:10:23;21.30;90.00
431;DHT22;202;48.764;9.172;2023-07-28T19:12:59;21.30;91.00
431;DHT22;202;48.764;9.172;2023-07-28T19:15:30;21.30;90.10
431;DHT22;202;48.764;9.172;2023-07-28T19:18:11;21.30;90.50
431;DHT22;202;48.764;9.172;2023-07-28T19:20:41;21.30;89.80
431;DHT22;202;48.764;9.172;2023-07-28T19:23:22;21.30;89.50
431;DHT22;202;48.764;9.172;2023-07-28T19:26:05;21.30;90.00
431;DHT22;202;48.764;9.172;2023-07-28T19:28:33;21.30;90.10
431;DHT22;202;48.764;9.172;2023-07-28T19:31:16;21.30;90.20
431;DHT22;202;48.764;9.172;2023-07-28T19:33:52;21.40;88.70
431;DHT22;202;48.764;9.172;2023-07-28T19:36:19;21.40;87.00
431;DHT22;202;48.764;9.172;2023-07-28T19:39:00;21.40;87.10
431;DHT22;202;48.764;9.172;2023-07-28T19:41:30;21.40;87.20
431;DHT22;202;48.764;9.172;2023-07-28T19:44:11;21.30;88.80
431;DHT22;202;48.764;9.172;2023-07-28T19:46:38;21.30;89.10
431;DHT22;202;48.764;9.172;2023-07-28T19:49:06;21.40;89.60
431;DHT22;202;48.764;9.172;2023-07-28T19:51:53;21.30;90.10
431;DHT22;202;48.764;9.172;2023-07-28T19:54:21;21.10;91.10
431;DHT22;202;48.764;9.172;2023-07-28T19:57:41;21.10;90.60
431;DHT22;202;48.764;9.172;2023-07-28T20:03:34;21.00;90.30
431;DHT22;202;48.764;9.172;2023-07-28T20:06:10;21.00;89.80
431;DHT22;202;48.764;9.172;2023-07-28T20:08:53;20.90;88.80
431;DHT22;202;48.764;9.172;2023-07-28T20:11:29;20.80;90.10
431;DHT22;202;48.764;9.172;2023-07-28T20:14:05;20.90;89.50
431;DHT22;202;48.764;9.172;2023-07-28T20:16:35;20.90;89.60
431;DHT22;202;48.764;9.172;2023-07-28T20:19:04;20.90;89.50
431;DHT22;202;48.764;9.172;2023-07-28T20:21:40;21.00;88.90
431;DHT22;202;48.764;9.172;2023-07-28T20:24:07;21.00;87.70
431;DHT22;202;48.764;9.172;2023-07-28T20:26:34;21.00;86.70
431;DHT22;202;48.764;9.172;2023-07-28T20:29:06;21.00;86.90
431;DHT22;202;48.764;9.172;2023-07-28T20:31:34;21.00;86.80
431;DHT22;202;48.764;9.172;2023-07-28T20:34:01;20.90;86.10
431;DHT22;202;48.764;9.172;2023-07-28T20:36:28;20.90;86.60
431;DHT22;202;48.764;9.172;2023-07-28T20:38:55;21.00;85.90
431;DHT22;202;48.764;9.172;2023-07-28T20:48:34;20.80;85.50
431;DHT22;202;48.764;9.172;2023-07-28T20:51:40;20.50;87.30
431;DHT22;202;48.764;9.172;2023-07-28T20:54:18;20.50;86.10
431;DHT22;202;48.764;9.172;2023-07-28T20:57:26;20.50;86.60
431;DHT22;202;48.764;9.172;2023-07-28T21:00:09;20.40;85.60
431;DHT22;202;48.764;9.172;2023-07-28T21:03:51;20.50;85.20
431;DHT22;202;48.764;9.172;2023-07-28T21:06:49;20.60;82.60
431;DHT22;202;48.764;9.172;2023-07-28T21:09:30;20.60;82.60
431;DHT22;202;48.764;9.172;2023-07-28T21:12:00;20.60;80.40
431;DHT22;202;48.764;9.172;2023-07-28T21:14:42;20.60;80.70
431;DHT22;202;48.764;9.172;2023-07-28T23:20:46;19.90;79.50
431;DHT22;202;48.764;9.172;2023-07-28T23:23:13;20.00;78.90
431;DHT22;202;48.764;9.172;2023-07-28T23:25:40;19.80;79.90
431;DHT22;202;48.764;9.172;2023-07-28T23:28:08;19.90;80.10
431;DHT22;202;48.764;9.172;2023-07-28T23:30:35;19.90;80.30
431;DHT22;202;48.764;9.172;2023-07-28T23:33:02;19.90;79.70
431;DHT22;202;48.764;9.172;2023-07-28T23:35:30;20.00;78.80
431;DHT22;202;48.764;9.172;2023-07-28T23:37:59;20.00;78.10
431;DHT22;202;48.764;9.172;2023-07-28T23:40:26;20.00;77.80
431;DHT22;202;48.764;9.172;2023-07-28T23:42:53;20.00;78.40
431;DHT22;202;48.764;9.172;2023-07-28T23:45:20;20.00;77.20
431;DHT22;202;48.764;9.172;2023-07-28T23:47:47;20.10;76.80
431;DHT22;202;48.764;9.172;2023-07-28T23:50:14;20.00;76.30
431;DHT22;202;48.764;9.172;2023-07-28T23:52:41;20.00;77.20
431;DHT22;202;48.764;9.172;2023-07-28T23:55:10;19.90;78.10
431;DHT22;202;48.764;9.172;2023-07-28T23:57:37;19.90;78.30
